Flight Track Log - Related Links

Times and Time Zones

All times are in EDT time to prevent confusion due to time zone crossing. See the N82HK flight status page for this flight to view local times or setup timezone preferences in your user account.

Time Position Orientation Groundspeed Altitude Reporting Facility
EDT Latitude Longitude Course Direction KTS MPH feet Rate Location/Type
Fri 09:14:54 AM 26.1953 -80.1769 311° West 90 104 200  Level Miami Center
Fri 09:16:13 AM 26.2217 -80.2103 311° West 113 130 1,700 851 Climbing Miami Center
Fri 09:17:15 AM 26.2333 -80.2475 289° West 154 177 2,200 488 Climbing Miami Center
Fri 09:18:16 AM 26.2344 -80.2917 272° West 150 173 2,700 590 Climbing Miami Center
Fri 09:19:17 AM 26.2353 -80.3381 271° West 143 165 3,400 683 Climbing Miami Center
Fri 09:20:19 AM 26.2364 -80.3819 272° West 143 165 4,100 683 Climbing Miami Center
Fri 09:21:20 AM 26.2606 -80.4197 306° West 145 167 4,800 639 Climbing Miami Center
Fri 09:22:21 AM 26.2614 -80.4639 271° West 142 163 5,400 590 Climbing Miami Center
Fri 09:23:22 AM 26.2667 -80.5033 278° West 147 169 6,000 645 Climbing Miami Center
Fri 09:24:22 AM 26.2697 -80.5519 274° West 152 175 6,700 600 Climbing Miami Center
Fri 09:25:22 AM 26.2708 -80.5939 272° West 152 175 7,200 550 Climbing Miami Center
Fri 09:26:22 AM 26.2736 -80.6425 274° West 152 175 7,800 400 Climbing Miami Center
Fri 09:27:22 AM 26.3044 -80.6667 325° Northwest 135 155 8,000 100 Climbing Miami Center
Fri 09:28:22 AM 26.3456 -80.6911 332° Northwest 153 176 8,000  Level Miami Center
Fri 09:29:22 AM 26.3783 -80.7108 332° Northwest 158 182 8,000  Level Miami Center
Fri 09:30:22 AM 26.4172 -80.7400 326° Northwest 158 182 8,000  Level Miami Center
Fri 09:31:22 AM 26.4481 -80.7642 325° Northwest 158 182 8,000  Level Miami Center
Fri 09:32:22 AM 26.4847 -80.7931 325° Northwest 152 175 8,000  Level Miami Center
Fri 09:33:22 AM 26.5236 -80.8200 328° Northwest 152 175 8,000  Level Miami Center
Fri 09:34:22 AM 26.5583 -80.8489 323° Northwest 152 175 8,000  Level Miami Center
Fri 09:35:22 AM 26.5933 -80.8758 325° Northwest 152 175 8,000  Level Miami Center
Fri 09:36:22 AM 26.6239 -80.9000 325° Northwest 152 175 8,000  Level Miami Center
Fri 09:37:22 AM 26.6586 -80.9267 326° Northwest 152 175 8,000  Level Miami Center
Fri 09:38:22 AM 26.6953 -80.9583 322° Northwest 152 175 8,000  Level Miami Center
Fri 09:39:22 AM 26.7300 -80.9850 326° Northwest 152 175 8,000  Level Miami Center
Fri 09:40:22 AM 26.7628 -81.0142 322° Northwest 152 175 8,000  Level Miami Center
Fri 09:41:22 AM 26.7953 -81.0386 326° Northwest 152 175 8,000  Level Miami Center
Fri 09:42:22 AM 26.8300 -81.0678 323° Northwest 152 175 8,000  Level Miami Center
Fri 09:43:22 AM 26.8689 -81.0969 326° Northwest 146 168 8,000  Level Miami Center
Fri 09:44:22 AM 26.9014 -81.1261 321° Northwest 151 174 8,000  Level Miami Center
Fri 09:45:22 AM 26.9361 -81.1531 325° Northwest 151 174 8,000  Level Miami Center
Fri 09:46:22 AM 26.9667 -81.1775 325° Northwest 151 174 8,000  Level Miami Center
Fri 09:47:22 AM 27.0014 -81.2044 325° Northwest 151 174 8,000  Level Miami Center
Fri 09:48:22 AM 27.0381 -81.2361 322° Northwest 151 174 8,000  Level Miami Center
Fri 09:49:22 AM 27.0725 -81.2653 323° Northwest 151 174 8,000  Level Miami Center
Fri 09:50:22 AM 27.1072 -81.2922 325° Northwest 151 174 8,000  Level Miami Center
Fri 09:51:22 AM 27.1378 -81.3144 327° Northwest 151 174 8,000  Level Miami Center
Fri 09:52:22 AM 27.1767 -81.3464 324° Northwest 151 174 8,000 -50 Level Miami Center
Fri 09:53:22 AM 27.2028 -81.3731 318° Northwest 151 174 7,900 -50 Descending Miami Center
Fri 09:54:22 AM 27.2353 -81.4047 319° Northwest 151 174 7,900  Level Miami Center
Fri 09:55:22 AM 27.2700 -81.4294 328° Northwest 151 174 7,900  Level Miami Center
Fri 09:56:22 AM 27.3047 -81.4564 325° Northwest 151 174 7,900  Level Miami Center
Fri 09:57:22 AM 27.3369 -81.4858 321° Northwest 151 174 7,900  Level Miami Center
Fri 09:58:22 AM 27.3717 -81.5128 325° Northwest 151 174 7,900  Level Miami Center
Fri 09:59:22 AM 27.4064 -81.5400 325° Northwest 151 174 7,900  Level Miami Center
Fri 10:00:22 AM 27.4408 -81.5672 325° Northwest 151 174 7,900  Level Miami Center
Fri 10:01:22 AM 27.4733 -81.5967 321° Northwest 151 174 7,900  Level Miami Center
Fri 10:02:22 AM 27.5100 -81.6239 327° Northwest 151 174 7,900  Level Miami Center
Fri 10:03:22 AM 27.5444 -81.6533 323° Northwest 151 174 7,900  Level Miami Center
Fri 10:04:22 AM 27.5769 -81.6806 323° Northwest 151 174 7,900 50 Level Miami Center
Fri 10:05:22 AM 27.6117 -81.7053 328° Northwest 148 170 8,000 50 Climbing Miami Center
Fri 10:06:22 AM 27.6461 -81.7325 325° Northwest 148 170 8,000  Level Miami Center
Fri 10:07:22 AM 27.6828 -81.7622 324° Northwest 148 170 8,000  Level Miami Center
Fri 10:08:22 AM 27.7150 -81.7917 321° Northwest 148 170 8,000  Level Miami Center
Fri 10:09:22 AM 27.7456 -81.8142 327° Northwest 148 170 8,000  Level Miami Center
Fri 10:10:22 AM 27.7781 -81.8439 321° Northwest 148 170 8,000 -50 Level Miami Center
Fri 10:11:22 AM 27.8144 -81.8758 322° Northwest 156 180 7,900 -50 Descending Miami Center
Fri 10:12:22 AM 27.8511 -81.9033 326° Northwest 156 180 7,900  Level Miami Center
Fri 10:13:22 AM 27.8856 -81.9306 325° Northwest 156 180 7,900  Level Miami Center
Fri 10:14:22 AM 27.9181 -81.9603 321° Northwest 149 171 7,900 49 Level Miami Center
Fri 10:15:24 AM 27.9500 -81.9833 327° Northwest 150 173 8,000 52 Climbing Tampa TRACON
Fri 10:16:18 AM 27.9833 -82.0167 319° Northwest 150 173 8,000  Level Tampa TRACON
Fri 10:17:24 AM 28.0167 -82.0333 336° Northwest 154 177 8,000  Level Tampa TRACON
Fri 10:18:24 AM 28.0667 -82.0667 330° Northwest 154 177 8,000  Level Tampa TRACON
Fri 10:19:24 AM 28.1000 -82.0833 336° Northwest 153 176 8,000 -53 Level Tampa TRACON
Fri 10:20:18 AM 28.1333 -82.1167 319° Northwest 155 178 7,900 -250 Descending Tampa TRACON
Fri 10:21:24 AM 28.1833 -82.1333 344° North 164 189 7,500 -429 Descending Tampa TRACON
Fri 10:22:24 AM 28.2167 -82.1667 319° Northwest 171 197 7,000 -550 Descending Tampa TRACON
Fri 10:23:24 AM 28.2667 -82.1833 344° North 177 204 6,400 -684 Descending Tampa TRACON
Fri 10:24:18 AM 28.3000 -82.2167 319° Northwest 177 204 5,700 -842 Descending Tampa TRACON
Fri 10:25:18 AM 28.3333 -82.2333 336° Northwest 174 200 4,800 -800 Descending Tampa TRACON
Fri 10:26:18 AM 28.3833 -82.2667 330° Northwest 167 192 4,100 -450 Descending Tampa TRACON
Fri 10:27:18 AM 28.4167 -82.2833 336° Northwest 156 180 3,900 -99 Descending Tampa TRACON
Fri 10:28:19 AM 28.4500 -82.3167 319° Northwest 147 169 3,900 47 Level Tampa TRACON
Fri 10:29:25 AM 28.5000 -82.3333 344° North 146 168 4,000  Climbing Tampa TRACON
Fri 10:30:19 AM 28.5167 -82.3500 319° Northwest 144 166 3,900  Descending Tampa TRACON
Fri 10:31:05 AM 28.5494 -82.3775 324° Northwest 142 163 4,000 56 Climbing Jacksonville Center
Fri 10:32:06 AM 28.5850 -82.3986 332° Northwest 143 165 4,000  Level Jacksonville Center
Fri 10:33:07 AM 28.6228 -82.4194 334° Northwest 144 166 4,000  Level Jacksonville Center
Fri 10:34:08 AM 28.6561 -82.4408 331° Northwest 143 165 4,000  Level Jacksonville Center
Fri 10:35:09 AM 28.6917 -82.4619 332° Northwest 142 163 4,000  Level Jacksonville Center
Fri 10:36:10 AM 28.7294 -82.4878 329° Northwest 142 163 4,000  Level Jacksonville Center

Login

Don't have an account? Register now (free) for customized features, flight alerts, and more!